Kirkland, AZ (86332)

6:45 PM MST on February 11, 2016 (GMT -0700)
North Wilhoit | | Change Station
CLOSE
Current Station
Personal Weather Station
Location: Wilhoit, AZ
Elevation: 4793 ft
Nearby Weather Stations

Elev 4793 ft 34.43 °N, 112.61 °W | Updated 13 seconds ago

Clear
Clear
58.8 °F
Feels Like 58.8 °F
N
2.0
Wind Variable Wind from NNE
Gusts 2.5 mph

Today
High -- | Low -- °F
--% Chance of Precip.
Yesterday
High -- | Low -- °F
Precip. -- in
Pressure 30.17 in
Visibility 10.0 miles
Clouds Clear
Dew Point 23 °F
Humidity 25%
Rainfall 0.00 in
Snow Depth Not available.
7:20 AM 6:09 PM
Waxing Crescent, 16% visible
METAR KPRC 120053Z 24004KT 10SM CLR 19/M09 A3028 RMK AO2 SLP216 T01891094
Pressure 30.17 in
Visibility 10.0 miles
Clouds Clear
Dew Point 23 °F
Humidity 25%
Rainfall 0.00 in
Snow Depth Not available.
7:20 AM 6:09 PM
Waxing Crescent, 16% visible
METAR KPRC 120053Z 24004KT 10SM CLR 19/M09 A3028 RMK AO2 SLP216 T01891094

10-Day Weather Forecast

Almanac

Astronomy

Feb. 11, 2016 Rise Set
Actual Time
Civil Twilight
Nautical Twilight
Astronomical Twilight
Moon
Length of Visible Light
Length of Day
Tomorrow will be .
, % of the Moon is Illuminated

Today's Extremes

State Highs State Lows

Community

WunderPhotos

Upload Photos

1,892,207 photos uploaded!

WunderBlog® & News

Nearby

Air Quality

  Air Quality AQ Index Pollutant
Not available.

Snow Depth

Station Depth Elevation

Earthquake Activity

City Distance Mag. Time & Date
Minimum magnitude displayed is 2.5.

Coastal Water Temperatures

Place Temperature

Stations

Nearby Weather Stations

Station Location Temp. Windchill Dew Point Humidity Wind Precip. Elev Updated Type
                   

Watches & Warnings

There are currently no watches in effect.